Time;durP1;ratioP1;P1;durP2;ratioP2;P2;SDS_P1;SDS_P2;PMS_P1;PMS_P2;Temp;Humidity;BMP_temperature;BMP_pressure;BME280_temperature;BME280_humidity;BME280_pressure;Samples;Min_cycle;Max_cycle;Signal;HPM_P1;HPM_P2
2021/03/21 06:00:34;;;;;;;;;;;;;;;;;;5139055;27;20330;-61
2021/03/21 06:03:12;;;;;;;1.38;1.27;;;;;;;;;;5128282;28;19939;-62
2021/03/21 06:05:56;;;;;;;0.10;0.10;;;;;;;;;;5127614;28;20035;-62
2021/03/21 06:08:22;;;;;;;0.10;0.10;;;;;;;;;;5128242;28;20038;-62
2021/03/21 06:11:07;;;;;;;3.53;1.05;;;;;;;;;;5128616;28;20024;-62
2021/03/21 06:13:36;;;;;;;0.10;0.10;;;;;;;;;;5129412;28;20054;-62
2021/03/21 06:16:21;;;;;;;0.10;0.10;;;;;;;;;;5116141;28;20039;-62
2021/03/21 06:18:53;;;;;;;1.08;0.85;;;;;;;;;;5116474;28;20409;-62
2021/03/21 06:21:22;;;;;;;0.80;0.80;;;;;;;;;;5116280;28;20082;-62
2021/03/21 06:24:00;;;;;;;0.17;0.17;;;;;;;;;;5098260;28;20016;-62
2021/03/21 06:26:37;;;;;;;0.10;0.10;;;;;;;;;;5115096;28;20568;-62
2021/03/21 06:29:20;;;;;;;0.00;0.00;;;;;;;;;;5093338;28;20028;-62
2021/03/21 06:31:46;;;;;;;0.10;0.10;;;;;;;;;;5125882;28;20042;-63
2021/03/21 06:34:12;;;;;;;0.25;0.25;;;;;;;;;;5128279;28;20019;-62
2021/03/21 06:36:41;;;;;;;0.10;0.10;;;;;;;;;;5127847;28;20477;-62
2021/03/21 06:39:26;;;;;;;0.08;0.08;;;;;;;;;;5123527;27;20115;-63
2021/03/21 06:41:55;;;;;;;0.10;0.10;;;;;;;;;;5118243;28;20023;-62
2021/03/21 06:44:25;;;;;;;0.47;0.47;;;;;;;;;;5126698;28;20381;-63
2021/03/21 06:46:51;;;;;;;0.17;0.17;;;;;;;;;;5110424;28;20120;-61
2021/03/21 06:49:32;;;;;;;0.10;0.10;;;;;;;;;;5127314;28;20079;-61
2021/03/21 06:52:06;;;;;;;0.50;0.35;;;;;;;;;;5126814;28;20479;-61
2021/03/21 06:54:34;;;;;;;0.10;0.10;;;;;;;;;;5126731;28;20028;-62
2021/03/21 06:57:22;;;;;;;0.10;0.10;;;;;;;;;;5126610;28;20073;-62
2021/03/21 07:00:07;;;;;;;0.30;0.30;;;;;;;;;;5122628;28;20039;-61
2021/03/21 07:02:38;;;;;;;0.10;0.10;;;;;;;;;;5105719;28;20030;-63
2021/03/21 07:05:23;;;;;;;0.10;0.10;;;;;;;;;;5110652;28;20468;-63
2021/03/21 07:08:13;;;;;;;0.20;0.20;;;;;;;;;;5111294;28;20027;-61
2021/03/21 07:10:43;;;;;;;0.10;0.10;;;;;;;;;;5113044;28;20116;-62
2021/03/21 07:13:09;;;;;;;0.10;0.10;;;;;;;;;;5112415;28;20023;-61
2021/03/21 07:15:50;;;;;;;1.70;0.77;;;;;;;;;;5111084;28;20027;-61
2021/03/21 07:18:35;;;;;;;0.10;0.10;;;;;;;;;;5109889;28;20157;-61
2021/03/21 07:21:04;;;;;;;0.10;0.10;;;;;;;;;;5109760;28;20031;-61
2021/03/21 07:23:49;;;;;;;0.10;0.10;;;;;;;;;;5111806;28;20118;-63
2021/03/21 07:26:24;;;;;;;0.10;0.10;;;;;;;;;;5111594;28;20035;-60
2021/03/21 07:28:56;;;;;;;0.10;0.10;;;;;;;;;;5111581;28;20038;-61
2021/03/21 07:31:42;;;;;;;0.13;0.13;;;;;;;;;;5112325;28;20111;-62
2021/03/21 07:34:16;;;;;;;0.10;0.10;;;;;;;;;;5112567;28;20118;-63
2021/03/21 07:37:03;;;;;;;0.10;0.10;;;;;;;;;;5111409;28;20062;-62
2021/03/21 07:39:48;;;;;;;0.10;0.10;;;;;;;;;;5096427;28;20511;-61
2021/03/21 07:42:26;;;;;;;0.10;0.10;;;;;;;;;;5108825;28;20527;-60
2021/03/21 07:45:12;;;;;;;0.10;0.10;;;;;;;;;;5109606;28;20024;-61
2021/03/21 07:47:57;;;;;;;0.10;0.10;;;;;;;;;;5109715;28;20019;-60
2021/03/21 07:50:32;;;;;;;0.10;0.10;;;;;;;;;;5109296;28;20247;-61
2021/03/21 07:53:17;;;;;;;0.10;0.10;;;;;;;;;;5110824;28;20019;-61
2021/03/21 07:55:53;;;;;;;0.10;0.10;;;;;;;;;;5109558;28;20038;-60
2021/03/21 07:58:19;;;;;;;;;;;;;;;;;;5110475;28;20024;-62
2021/03/21 08:00:46;;;;;;;0.10;0.10;;;;;;;;;;5108965;28;20439;-60
2021/03/21 08:03:12;;;;;;;0.10;0.10;;;;;;;;;;5110687;28;20533;-60
2021/03/21 08:05:39;;;;;;;0.60;0.60;;;;;;;;;;5110707;28;20023;-62
2021/03/21 08:08:06;;;;;;;0.10;0.10;;;;;;;;;;5110745;28;20404;-60
2021/03/21 08:10:38;;;;;;;0.55;0.55;;;;;;;;;;5111617;28;20035;-62
2021/03/21 08:13:26;;;;;;;0.30;0.30;;;;;;;;;;5109672;28;20027;-61
2021/03/21 08:15:52;;;;;;;0.85;0.85;;;;;;;;;;5109748;28;20035;-61
2021/03/21 08:18:23;;;;;;;0.10;0.10;;;;;;;;;;5110235;28;20024;-61
2021/03/21 08:20:50;;;;;;;1.30;0.70;;;;;;;;;;5110529;28;20020;-62
2021/03/21 08:23:25;;;;;;;0.10;0.10;;;;;;;;;;5108490;28;20035;-62
2021/03/21 08:25:52;;;;;;;0.10;0.10;;;;;;;;;;5111511;28;20550;-61
2021/03/21 08:28:20;;;;;;;0.10;0.10;;;;;;;;;;5111973;28;20032;-61
2021/03/21 08:30:52;;;;;;;0.10;0.10;;;;;;;;;;5109207;28;20058;-61
2021/03/21 08:33:28;;;;;;;0.10;0.10;;;;;;;;;;5093288;28;20019;-61
2021/03/21 08:35:54;;;;;;;;;;;;;;;;;;5110031;28;20059;-62
2021/03/21 08:38:20;;;;;;;;;;;;;;;;;;5110134;28;20348;-61
2021/03/21 08:40:46;;;;;;;;;;;;;;;;;;5110772;28;19915;-61
2021/03/21 08:43:12;;;;;;;;;;;;;;;;;;5111734;28;19912;-60
2021/03/21 08:45:39;;;;;;;1.50;1.25;;;;;;;;;;5109553;28;19915;-61
2021/03/21 08:48:20;;;;;;;0.55;0.50;;;;;;;;;;5110125;28;20032;-61
2021/03/21 08:50:48;;;;;;;0.35;0.22;;;;;;;;;;5110294;28;20053;-61
2021/03/21 08:53:34;;;;;;;1.42;0.95;;;;;;;;;;5110214;28;20016;-60
2021/03/21 08:56:10;;;;;;;1.60;0.65;;;;;;;;;;5110111;28;20028;-61
2021/03/21 08:58:37;;;;;;;1.58;1.48;;;;;;;;;;5109653;28;20042;-61
2021/03/21 09:01:10;;;;;;;2.50;1.08;;;;;;;;;;5110081;28;20061;-62
2021/03/21 09:03:36;;;;;;;1.25;1.23;;;;;;;;;;5101054;28;20039;-63
2021/03/21 09:06:02;;;;;;;0.15;0.15;;;;;;;;;;5107738;28;20020;-62
2021/03/21 09:08:29;;;;;;;1.73;1.20;;;;;;;;;;5108487;28;20493;-61
2021/03/21 09:10:56;;;;;;;1.08;1.08;;;;;;;;;;5109204;28;20020;-62
2021/03/21 09:13:27;;;;;;;2.80;0.82;;;;;;;;;;5111198;28;20027;-61
2021/03/21 09:15:59;;;;;;;0.10;0.10;;;;;;;;;;5109117;28;20099;-61
2021/03/21 09:18:25;;;;;;;0.85;0.43;;;;;;;;;;5109925;28;20127;-61
2021/03/21 09:21:14;;;;;;;1.23;1.13;;;;;;;;;;5109785;28;20020;-61
2021/03/21 09:23:45;;;;;;;0.68;0.52;;;;;;;;;;5108554;28;20077;-61
2021/03/21 09:26:18;;;;;;;1.27;0.57;;;;;;;;;;5107636;28;20047;-61
2021/03/21 09:28:48;;;;;;;0.20;0.20;;;;;;;;;;5109004;28;20048;-60
2021/03/21 09:31:15;;;;;;;0.65;0.55;;;;;;;;;;5109020;28;20476;-61
2021/03/21 09:33:50;;;;;;;1.30;0.93;;;;;;;;;;5079500;28;20480;-61
2021/03/21 09:36:19;;;;;;;0.35;0.35;;;;;;;;;;5107763;28;20020;-60
2021/03/21 09:38:56;;;;;;;0.13;0.13;;;;;;;;;;5109655;28;20040;-62
2021/03/21 09:41:22;;;;;;;0.75;0.35;;;;;;;;;;5110440;28;20392;-61
2021/03/21 09:43:49;;;;;;;0.70;0.45;;;;;;;;;;5109263;28;20495;-61
2021/03/21 09:46:37;;;;;;;1.75;1.65;;;;;;;;;;5108873;28;20103;-61
2021/03/21 09:49:11;;;;;;;0.30;0.30;;;;;;;;;;5109914;28;20071;-62
2021/03/21 09:51:40;;;;;;;0.50;0.50;;;;;;;;;;5107049;28;20032;-62
2021/03/21 09:54:06;;;;;;;0.10;0.10;;;;;;;;;;5107351;28;20019;-61
2021/03/21 09:56:45;;;;;;;0.10;0.10;;;;;;;;;;5108093;28;20028;-61
2021/03/21 09:59:27;;;;;;;0.80;0.57;;;;;;;;;;5092825;28;20101;-62
2021/03/21 10:01:56;;;;;;;0.80;0.80;;;;;;;;;;5110117;28;20576;-61
2021/03/21 10:04:38;;;;;;;1.55;1.45;;;;;;;;;;5110122;28;20089;-61
2021/03/21 10:07:08;;;;;;;4.63;0.93;;;;;;;;;;5107928;28;20043;-61
2021/03/21 10:09:34;;;;;;;0.20;0.20;;;;;;;;;;5107218;28;20483;-61
2021/03/21 10:12:04;;;;;;;0.93;0.85;;;;;;;;;;5107462;28;20008;-62
2021/03/21 10:14:30;;;;;;;0.10;0.10;;;;;;;;;;5107814;28;20469;-61
2021/03/21 10:16:58;;;;;;;1.48;0.88;;;;;;;;;;5108882;28;20081;-61
2021/03/21 10:19:39;;;;;;;0.00;0.00;;;;;;;;;;5111286;28;20028;-61
2021/03/21 10:22:35;;;;;;;3.90;1.73;;;;;;;;;;5108782;28;20055;-60
2021/03/21 10:25:03;;;;;;;0.10;0.10;;;;;;;;;;5095032;28;20123;-62
2021/03/21 10:27:29;;;;;;;0.35;0.35;;;;;;;;;;5107260;28;20102;-62
2021/03/21 10:30:14;;;;;;;1.95;0.57;;;;;;;;;;5107593;28;20028;-61
2021/03/21 10:32:42;;;;;;;0.10;0.10;;;;;;;;;;5095118;28;20457;-62
2021/03/21 10:35:34;;;;;;;0.30;0.30;;;;;;;;;;5108884;28;20680;-60
2021/03/21 10:38:02;;;;;;;0.10;0.10;;;;;;;;;;5112231;28;20031;-61
2021/03/21 10:40:28;;;;;;;0.55;0.55;;;;;;;;;;5113546;28;20528;-61
2021/03/21 10:42:56;;;;;;;0.10;0.10;;;;;;;;;;5113394;28;20020;-61
2021/03/21 10:45:31;;;;;;;0.10;0.10;;;;;;;;;;5110154;28;20074;-63
2021/03/21 10:47:58;;;;;;;2.80;1.80;;;;;;;;;;5110187;28;20194;-61
2021/03/21 10:50:27;;;;;;;1.83;0.77;;;;;;;;;;5109946;28;20023;-60
2021/03/21 10:53:12;;;;;;;3.35;1.33;;;;;;;;;;5110282;28;20107;-61
2021/03/21 10:55:41;;;;;;;0.25;0.25;;;;;;;;;;5112186;28;20455;-61
2021/03/21 10:58:37;;;;;;;2.03;1.90;;;;;;;;;;5112622;28;20049;-61
2021/03/21 11:01:32;;;;;;;0.30;0.30;;;;;;;;;;5029494;28;20116;-61
2021/03/21 11:03:59;;;;;;;0.52;0.52;;;;;;;;;;5021603;28;20054;-61
2021/03/21 11:06:27;;;;;;;3.20;2.22;;;;;;;;;;5029646;28;20050;-61
2021/03/21 11:08:53;;;;;;;4.82;2.97;;;;;;;;;;5029903;28;20041;-61
2021/03/21 11:11:19;;;;;;;3.17;2.20;;;;;;;;;;5030010;28;20496;-62
2021/03/21 11:13:46;;;;;;;0.32;0.32;;;;;;;;;;5029638;28;20078;-61
2021/03/21 11:16:13;;;;;;;4.95;2.67;;;;;;;;;;5031475;28;20025;-60
2021/03/21 11:18:39;;;;;;;1.67;1.48;;;;;;;;;;5031040;28;20033;-61
2021/03/21 11:21:09;;;;;;;0.95;0.80;;;;;;;;;;5030907;28;20021;-61
2021/03/21 11:23:44;;;;;;;0.30;0.30;;;;;;;;;;5029348;28;20034;-61
2021/03/21 11:26:20;;;;;;;0.10;0.10;;;;;;;;;;5012518;28;20046;-60
2021/03/21 11:28:47;;;;;;;0.20;0.20;;;;;;;;;;5031220;28;20041;-61
2021/03/21 11:31:16;;;;;;;1.85;1.15;;;;;;;;;;5030424;28;20750;-61
2021/03/21 11:33:43;;;;;;;5.63;2.25;;;;;;;;;;5030743;28;20040;-61
2021/03/21 11:36:10;;;;;;;3.50;1.30;;;;;;;;;;5030701;28;20021;-61
2021/03/21 11:38:39;;;;;;;0.65;0.65;;;;;;;;;;5108292;28;20042;-61
2021/03/21 11:41:06;;;;;;;2.08;1.30;;;;;;;;;;5076429;28;20504;-61
2021/03/21 11:43:32;;;;;;;1.33;1.23;;;;;;;;;;5114093;28;20019;-62
2021/03/21 11:46:14;;;;;;;2.50;0.85;;;;;;;;;;5110326;28;20034;-62
2021/03/21 11:48:40;;;;;;;4.78;4.32;;;;;;;;;;5109922;28;20027;-62
2021/03/21 11:51:10;;;;;;;0.10;0.10;;;;;;;;;;5111911;28;20092;-62
2021/03/21 11:53:37;;;;;;;2.75;1.48;;;;;;;;;;5109369;28;20089;-62
2021/03/21 11:56:11;;;;;;;5.13;1.58;;;;;;;;;;5110078;28;20020;-63
2021/03/21 11:58:43;;;;;;;5.40;2.00;;;;;;;;;;5109417;28;20046;-61
2021/03/21 12:01:10;;;;;;;2.08;1.30;;;;;;;;;;5112822;28;20503;-61
2021/03/21 12:03:47;;;;;;;4.30;2.92;;;;;;;;;;5109543;28;20069;-61
2021/03/21 12:06:25;;;;;;;3.20;2.65;;;;;;;;;;5109511;28;20031;-62
2021/03/21 12:08:52;;;;;;;6.35;2.08;;;;;;;;;;5108410;28;20130;-61
2021/03/21 12:11:21;;;;;;;3.90;2.03;;;;;;;;;;5108645;28;20063;-62
2021/03/21 12:13:48;;;;;;;3.13;1.42;;;;;;;;;;5111693;28;20045;-62
2021/03/21 12:16:33;;;;;;;0.70;0.35;;;;;;;;;;5110521;28;20078;-61
2021/03/21 12:18:59;;;;;;;1.17;0.73;;;;;;;;;;5106567;27;20063;-62
2021/03/21 12:21:25;;;;;;;2.28;1.33;;;;;;;;;;5087248;28;20067;-61
2021/03/21 12:23:54;;;;;;;1.38;0.68;;;;;;;;;;5089121;28;20703;-61
2021/03/21 12:26:20;;;;;;;0.63;0.63;;;;;;;;;;5110961;28;20036;-60
2021/03/21 12:28:51;;;;;;;0.50;0.50;;;;;;;;;;5097192;28;20035;-62
2021/03/21 12:31:26;;;;;;;1.85;0.30;;;;;;;;;;5109800;28;20111;-61
2021/03/21 12:33:52;;;;;;;3.05;1.90;;;;;;;;;;5110076;28;20027;-62
2021/03/21 12:36:20;;;;;;;3.45;1.80;;;;;;;;;;5105566;28;20047;-62
2021/03/21 12:38:56;;;;;;;0.70;0.70;;;;;;;;;;5106062;28;20371;-62
2021/03/21 12:41:37;;;;;;;2.30;0.90;;;;;;;;;;5092280;28;20061;-63
2021/03/21 12:44:09;;;;;;;1.05;0.95;;;;;;;;;;5110090;28;20027;-62
2021/03/21 12:47:01;;;;;;;3.60;2.03;;;;;;;;;;5107529;28;20042;-62
2021/03/21 12:49:43;;;;;;;1.30;1.10;;;;;;;;;;5023403;28;20049;-61
2021/03/21 12:52:13;;;;;;;0.10;0.10;;;;;;;;;;5027882;28;20076;-62
2021/03/21 12:54:40;;;;;;;1.80;0.70;;;;;;;;;;5015866;28;20038;-61
2021/03/21 12:57:15;;;;;;;0.82;0.75;;;;;;;;;;5022000;28;20025;-60
2021/03/21 12:59:41;;;;;;;;;;;;;;;;;;5011262;28;20682;-61
2021/03/21 13:02:07;;;;;;;;;;;;;;;;;;5018163;28;19916;-60
2021/03/21 13:04:33;;;;;;;;;;;;;;;;;;5019999;28;19948;-61
2021/03/21 13:06:59;;;;;;;;;;;;;;;;;;5021846;28;20006;-59
2021/03/21 13:09:25;;;;;;;;;;;;;;;;;;5022175;28;19917;-60
2021/03/21 13:11:51;;;;;;;;;;;;;;;;;;5023157;28;20047;-60
2021/03/21 13:14:17;;;;;;;;;;;;;;;;;;5021703;28;19909;-61
2021/03/21 13:16:43;;;;;;;;;;;;;;;;;;5020904;28;19912;-65
2021/03/21 13:19:10;;;;;;;1.50;1.40;;;;;;;;;;5019098;28;19913;-64
2021/03/21 13:21:36;;;;;;;0.70;0.60;;;;;;;;;;5016841;28;20041;-65
2021/03/21 13:24:03;;;;;;;0.50;0.50;;;;;;;;;;5020909;28;20694;-66
2021/03/21 13:26:29;;;;;;;1.25;1.10;;;;;;;;;;5073845;28;20027;-65
2021/03/21 13:28:55;;;;;;;0.43;0.40;;;;;;;;;;5085870;28;20051;-65
2021/03/21 13:31:21;;;;;;;16.65;1.05;;;;;;;;;;5106195;28;20016;-65
2021/03/21 13:33:47;;;;;;;0.10;0.10;;;;;;;;;;5087371;28;20488;-67
2021/03/21 13:36:13;;;;;;;1.30;1.13;;;;;;;;;;5106301;27;20054;-67
2021/03/21 13:38:39;;;;;;;0.47;0.47;;;;;;;;;;5104285;28;20024;-67
2021/03/21 13:41:06;;;;;;;0.90;0.90;;;;;;;;;;5103510;28;20042;-65
2021/03/21 13:43:32;;;;;;;0.93;0.50;;;;;;;;;;5109333;28;20119;-64
2021/03/21 13:45:59;;;;;;;3.20;1.05;;;;;;;;;;5107973;28;20030;-67
2021/03/21 13:48:26;;;;;;;4.78;1.48;;;;;;;;;;5103781;28;20035;-66
2021/03/21 13:50:52;;;;;;;0.63;0.63;;;;;;;;;;5108215;28;20020;-67
2021/03/21 13:53:21;;;;;;;0.22;0.22;;;;;;;;;;5107509;28;20066;-67
2021/03/21 13:55:47;;;;;;;1.38;1.25;;;;;;;;;;5094688;28;20385;-68
2021/03/21 13:58:14;;;;;;;2.08;1.88;;;;;;;;;;5106566;28;20024;-66
2021/03/21 14:00:41;;;;;;;0.10;0.10;;;;;;;;;;5106925;28;20069;-67
2021/03/21 14:03:08;;;;;;;1.30;1.10;;;;;;;;;;5107723;28;20067;-66
2021/03/21 14:05:34;;;;;;;0.10;0.10;;;;;;;;;;5109064;28;20019;-67
2021/03/21 14:08:01;;;;;;;0.68;0.68;;;;;;;;;;5109232;28;20485;-68
2021/03/21 14:10:28;;;;;;;3.58;0.63;;;;;;;;;;5111576;28;20101;-68
2021/03/21 14:12:54;;;;;;;2.00;1.35;;;;;;;;;;5111940;28;20028;-68
2021/03/21 14:15:21;;;;;;;2.05;0.47;;;;;;;;;;5102398;28;20477;-68
2021/03/21 14:17:48;;;;;;;1.83;1.00;;;;;;;;;;5111294;28;20024;-67
2021/03/21 14:20:16;;;;;;;1.52;0.73;;;;;;;;;;5112004;28;20024;-68
2021/03/21 14:22:42;;;;;;;0.63;0.63;;;;;;;;;;5114401;28;20503;-68
2021/03/21 14:25:08;;;;;;;2.72;1.10;;;;;;;;;;5114006;28;20031;-68
2021/03/21 14:27:35;;;;;;;0.85;0.85;;;;;;;;;;5111709;28;20120;-67
2021/03/21 14:30:01;;;;;;;1.58;1.20;;;;;;;;;;5111562;28;20149;-66
2021/03/21 14:32:27;;;;;;;1.83;0.93;;;;;;;;;;5112891;28;20070;-68
2021/03/21 14:34:54;;;;;;;6.60;1.23;;;;;;;;;;5113500;28;20029;-68
2021/03/21 14:37:20;;;;;;;0.75;0.65;;;;;;;;;;5112929;28;20077;-67
2021/03/21 14:39:46;;;;;;;2.92;1.77;;;;;;;;;;5111408;28;20023;-68
2021/03/21 14:42:15;;;;;;;0.70;0.63;;;;;;;;;;5111747;28;20048;-66
2021/03/21 14:44:41;;;;;;;3.45;2.30;;;;;;;;;;5111605;28;20027;-68
2021/03/21 14:47:07;;;;;;;1.67;1.33;;;;;;;;;;5110793;28;20564;-68
2021/03/21 14:49:33;;;;;;;5.25;2.28;;;;;;;;;;5114764;28;20034;-68
2021/03/21 14:52:00;;;;;;;2.85;1.77;;;;;;;;;;5101812;28;20392;-68
2021/03/21 14:54:26;;;;;;;1.08;0.45;;;;;;;;;;5111223;28;20024;-66
2021/03/21 14:56:52;;;;;;;1.65;0.95;;;;;;;;;;5101357;28;20039;-67
2021/03/21 14:59:18;;;;;;;1.92;0.93;;;;;;;;;;5110572;28;20058;-68
2021/03/21 15:01:44;;;;;;;4.95;2.38;;;;;;;;;;5112981;28;20023;-68
2021/03/21 15:04:10;;;;;;;2.25;1.15;;;;;;;;;;5112731;28;20036;-68
2021/03/21 15:06:36;;;;;;;2.25;1.33;;;;;;;;;;5109798;28;20492;-67
2021/03/21 15:09:03;;;;;;;0.50;0.43;;;;;;;;;;5111467;28;20035;-68
2021/03/21 15:11:29;;;;;;;6.03;2.15;;;;;;;;;;5109940;28;20023;-67
2021/03/21 15:13:56;;;;;;;1.45;0.93;;;;;;;;;;5112411;28;20059;-68
2021/03/21 15:16:22;;;;;;;2.58;1.55;;;;;;;;;;5112132;28;20042;-67
2021/03/21 15:18:48;;;;;;;3.80;2.00;;;;;;;;;;5110797;28;20035;-67
2021/03/21 15:21:14;;;;;;;0.93;0.75;;;;;;;;;;5109975;28;20019;-68
2021/03/21 15:23:41;;;;;;;1.38;1.13;;;;;;;;;;5110709;28;20024;-67
2021/03/21 15:26:11;;;;;;;4.03;1.10;;;;;;;;;;5110936;28;20115;-67
2021/03/21 15:28:38;;;;;;;2.17;1.25;;;;;;;;;;5113445;28;20034;-67
2021/03/21 15:31:09;;;;;;;2.50;1.63;;;;;;;;;;5110624;28;20432;-67
2021/03/21 15:33:35;;;;;;;0.85;0.47;;;;;;;;;;5111883;28;20062;-68
2021/03/21 15:36:02;;;;;;;1.85;1.30;;;;;;;;;;5110155;28;20038;-68
2021/03/21 15:38:28;;;;;;;2.42;1.23;;;;;;;;;;5110412;28;20016;-67
2021/03/21 15:40:54;;;;;;;3.00;1.63;;;;;;;;;;5112273;28;20447;-68
2021/03/21 15:43:20;;;;;;;3.42;1.80;;;;;;;;;;5112267;28;20711;-67
2021/03/21 15:45:46;;;;;;;1.83;1.40;;;;;;;;;;5109952;28;20019;-67
2021/03/21 15:48:13;;;;;;;1.38;1.25;;;;;;;;;;5110584;28;20397;-67
2021/03/21 15:50:39;;;;;;;5.57;2.55;;;;;;;;;;5110457;28;20080;-68
2021/03/21 15:53:07;;;;;;;6.45;2.55;;;;;;;;;;5094256;28;20052;-68
2021/03/21 15:55:34;;;;;;;3.00;1.83;;;;;;;;;;5113534;27;20027;-67
2021/03/21 15:58:00;;;;;;;2.35;1.73;;;;;;;;;;5110146;28;20027;-68
2021/03/21 16:00:28;;;;;;;2.22;1.17;;;;;;;;;;5109909;28;20047;-68
2021/03/21 16:02:54;;;;;;;0.80;0.80;;;;;;;;;;5103540;27;20076;-68
2021/03/21 16:05:21;;;;;;;3.72;0.35;;;;;;;;;;5090545;28;20076;-67
2021/03/21 16:07:47;;;;;;;2.55;1.48;;;;;;;;;;5109701;28;20028;-68
2021/03/21 16:10:14;;;;;;;2.25;1.17;;;;;;;;;;5109759;28;20038;-62
2021/03/21 16:12:40;;;;;;;1.88;1.23;;;;;;;;;;5104659;28;20032;-67
2021/03/21 16:15:07;;;;;;;2.17;1.05;;;;;;;;;;5108673;28;20027;-67
2021/03/21 16:17:33;;;;;;;0.75;0.40;;;;;;;;;;5106941;28;20019;-67
2021/03/21 16:19:59;;;;;;;1.88;1.50;;;;;;;;;;5108879;28;20044;-67
2021/03/21 16:22:26;;;;;;;0.80;0.68;;;;;;;;;;5104577;28;20173;-67
2021/03/21 16:24:54;;;;;;;0.52;0.52;;;;;;;;;;5104295;28;20547;-66
2021/03/21 16:27:21;;;;;;;1.15;1.10;;;;;;;;;;5105966;28;20015;-67
2021/03/21 16:29:47;;;;;;;1.80;0.35;;;;;;;;;;5108344;28;20039;-67
2021/03/21 16:32:13;;;;;;;0.13;0.13;;;;;;;;;;5101814;28;20094;-67
2021/03/21 16:34:39;;;;;;;0.52;0.40;;;;;;;;;;5108405;28;20031;-67
2021/03/21 16:37:06;;;;;;;3.08;1.25;;;;;;;;;;5098223;28;20103;-67
2021/03/21 16:39:32;;;;;;;1.45;0.95;;;;;;;;;;5108895;28;20435;-67
2021/03/21 16:41:58;;;;;;;0.55;0.55;;;;;;;;;;5087955;28;20027;-67
2021/03/21 16:44:26;;;;;;;1.55;1.45;;;;;;;;;;5083626;28;20052;-66
2021/03/21 16:46:52;;;;;;;0.60;0.60;;;;;;;;;;5110333;28;20528;-67
2021/03/21 16:49:18;;;;;;;0.40;0.40;;;;;;;;;;5110798;28;20063;-67
2021/03/21 16:51:44;;;;;;;8.00;1.65;;;;;;;;;;5104352;28;20028;-65
2021/03/21 16:54:10;;;;;;;0.50;0.50;;;;;;;;;;5109901;28;20023;-66
2021/03/21 16:56:36;;;;;;;2.30;1.55;;;;;;;;;;5110213;28;20077;-66
2021/03/21 16:59:02;;;;;;;1.55;1.38;;;;;;;;;;5109550;28;20044;-66
2021/03/21 17:01:34;;;;;;;7.65;2.35;;;;;;;;;;5109303;28;20034;-66
2021/03/21 17:04:00;;;;;;;1.52;1.42;;;;;;;;;;5097377;27;20030;-67
2021/03/21 17:06:26;;;;;;;1.73;1.27;;;;;;;;;;5103330;28;20114;-66
2021/03/21 17:08:52;;;;;;;0.98;0.98;;;;;;;;;;5103527;28;20445;-66
2021/03/21 17:11:18;;;;;;;2.28;1.30;;;;;;;;;;5108201;28;20016;-67
2021/03/21 17:13:45;;;;;;;3.80;2.22;;;;;;;;;;5108818;28;20446;-65
2021/03/21 17:16:12;;;;;;;2.38;1.65;;;;;;;;;;5103837;27;20032;-66
2021/03/21 17:18:40;;;;;;;3.92;3.33;;;;;;;;;;5103360;28;20027;-66
2021/03/21 17:21:06;;;;;;;2.17;2.05;;;;;;;;;;5106013;28;20394;-67
2021/03/21 17:23:32;;;;;;;1.02;0.77;;;;;;;;;;5103119;28;20023;-67
2021/03/21 17:25:58;;;;;;;0.68;0.57;;;;;;;;;;5108941;28;20019;-67
2021/03/21 17:28:25;;;;;;;6.60;3.00;;;;;;;;;;5108170;28;20065;-67
2021/03/21 17:30:52;;;;;;;2.40;1.50;;;;;;;;;;5108699;28;20023;-65
2021/03/21 17:33:19;;;;;;;1.60;1.38;;;;;;;;;;5106977;28;20020;-63
2021/03/21 17:35:47;;;;;;;1.08;1.02;;;;;;;;;;5108979;28;20510;-66
2021/03/21 17:38:13;;;;;;;0.93;0.93;;;;;;;;;;5107789;28;20039;-66
2021/03/21 17:40:40;;;;;;;4.28;2.10;;;;;;;;;;5108395;28;20628;-68
2021/03/21 17:43:07;;;;;;;28.52;3.85;;;;;;;;;;5108254;28;20026;-65
2021/03/21 17:45:36;;;;;;;1.55;0.90;;;;;;;;;;5104932;28;20027;-65
2021/03/21 17:48:02;;;;;;;3.53;2.22;;;;;;;;;;5107765;28;20051;-64
2021/03/21 17:50:29;;;;;;;2.05;1.23;;;;;;;;;;5107101;28;20117;-65
2021/03/21 17:52:57;;;;;;;1.13;1.05;;;;;;;;;;5109362;28;20092;-65
2021/03/21 17:55:23;;;;;;;1.08;0.55;;;;;;;;;;5109125;28;20038;-69
2021/03/21 17:57:49;;;;;;;3.75;1.42;;;;;;;;;;5107743;28;20074;-62
2021/03/21 18:00:16;;;;;;;2.03;1.20;;;;;;;;;;5107732;28;20048;-61
2021/03/21 18:02:42;;;;;;;0.40;0.40;;;;;;;;;;5107750;28;20525;-68
2021/03/21 18:05:09;;;;;;;4.07;1.65;;;;;;;;;;5107424;28;20055;-65
2021/03/21 18:07:35;;;;;;;0.10;0.10;;;;;;;;;;5108367;28;20118;-65
2021/03/21 18:10:01;;;;;;;3.22;1.38;;;;;;;;;;5106700;28;20137;-66
2021/03/21 18:12:28;;;;;;;1.63;0.93;;;;;;;;;;5107797;28;20012;-66
2021/03/21 18:14:54;;;;;;;2.17;0.85;;;;;;;;;;5108778;28;20512;-66
2021/03/21 18:17:20;;;;;;;0.80;0.75;;;;;;;;;;5107583;28;20024;-63
2021/03/21 18:19:46;;;;;;;0.30;0.30;;;;;;;;;;5109994;28;20535;-65
2021/03/21 18:22:12;;;;;;;1.25;0.88;;;;;;;;;;5106996;28;20489;-64
2021/03/21 18:24:38;;;;;;;0.85;0.85;;;;;;;;;;5107650;28;20023;-66
2021/03/21 18:27:05;;;;;;;2.08;1.17;;;;;;;;;;5108853;28;20016;-66
2021/03/21 18:29:31;;;;;;;0.10;0.10;;;;;;;;;;5108454;28;20044;-64
2021/03/21 18:31:57;;;;;;;0.95;0.95;;;;;;;;;;5108673;28;20036;-66
2021/03/21 18:34:24;;;;;;;0.75;0.57;;;;;;;;;;5109791;28;20028;-66
2021/03/21 18:36:51;;;;;;;0.32;0.32;;;;;;;;;;5107302;28;20023;-66
2021/03/21 18:39:20;;;;;;;0.70;0.70;;;;;;;;;;5106451;28;20024;-66
2021/03/21 18:41:47;;;;;;;1.55;1.23;;;;;;;;;;5106487;28;20019;-66
2021/03/21 18:44:13;;;;;;;3.60;0.90;;;;;;;;;;5107231;28;20028;-66
2021/03/21 18:46:39;;;;;;;1.27;1.13;;;;;;;;;;5110448;28;20077;-65
2021/03/21 18:49:05;;;;;;;1.40;0.98;;;;;;;;;;5110053;28;20039;-66
2021/03/21 18:51:50;;;;;;;0.20;0.20;;;;;;;;;;5107983;28;20080;-66
2021/03/21 18:54:18;;;;;;;0.28;0.28;;;;;;;;;;5105092;28;20023;-65
2021/03/21 18:56:44;;;;;;;0.10;0.10;;;;;;;;;;5105987;28;20032;-64
2021/03/21 18:59:11;;;;;;;0.30;0.30;;;;;;;;;;5107614;28;20051;-65
2021/03/21 19:01:41;;;;;;;0.10;0.10;;;;;;;;;;5113059;28;20024;-66
2021/03/21 19:04:08;;;;;;;0.10;0.10;;;;;;;;;;5113092;28;20028;-65
2021/03/21 19:06:34;;;;;;;0.10;0.10;;;;;;;;;;5109704;28;20051;-64
2021/03/21 19:09:00;;;;;;;0.30;0.30;;;;;;;;;;5096034;28;20043;-68
2021/03/21 19:11:26;;;;;;;0.20;0.20;;;;;;;;;;5109319;28;20024;-62
2021/03/21 19:13:52;;;;;;;0.10;0.10;;;;;;;;;;5111627;28;20027;-65
2021/03/21 19:16:18;;;;;;;0.80;0.60;;;;;;;;;;5106240;28;20036;-65
2021/03/21 19:18:45;;;;;;;0.50;0.50;;;;;;;;;;5109174;28;20031;-64
2021/03/21 19:21:11;;;;;;;0.10;0.10;;;;;;;;;;5108381;28;20020;-65
2021/03/21 19:23:37;;;;;;;0.10;0.10;;;;;;;;;;5106807;28;20030;-65
2021/03/21 19:26:03;;;;;;;0.10;0.10;;;;;;;;;;5107323;28;20024;-64
2021/03/21 19:28:30;;;;;;;0.30;0.30;;;;;;;;;;5111065;28;20063;-64
2021/03/21 19:30:56;;;;;;;0.20;0.20;;;;;;;;;;5109782;28;20039;-64
2021/03/21 19:33:22;;;;;;;0.10;0.10;;;;;;;;;;5106680;28;20563;-64
2021/03/21 19:35:51;;;;;;;0.60;0.60;;;;;;;;;;5107347;28;20448;-64
2021/03/21 19:38:18;;;;;;;0.20;0.20;;;;;;;;;;5109054;28;20109;-64
2021/03/21 19:40:47;;;;;;;2.20;1.08;;;;;;;;;;5110404;28;20033;-64
2021/03/21 19:43:13;;;;;;;0.52;0.52;;;;;;;;;;5110661;28;20027;-62
2021/03/21 19:45:40;;;;;;;0.10;0.10;;;;;;;;;;5108558;28;20027;-63
2021/03/21 19:48:08;;;;;;;0.10;0.10;;;;;;;;;;5108880;28;20039;-63
2021/03/21 19:50:35;;;;;;;0.35;0.30;;;;;;;;;;5109126;28;20035;-63
2021/03/21 19:53:02;;;;;;;0.22;0.22;;;;;;;;;;5108601;28;20106;-63
2021/03/21 19:55:28;;;;;;;0.20;0.20;;;;;;;;;;5109789;28;20290;-64
2021/03/21 19:57:54;;;;;;;0.20;0.20;;;;;;;;;;5108846;28;20508;-64
2021/03/21 20:00:21;;;;;;;0.10;0.10;;;;;;;;;;5108529;28;20118;-63
2021/03/21 20:02:47;;;;;;;0.20;0.20;;;;;;;;;;5108064;28;20027;-64
2021/03/21 20:05:14;;;;;;;0.10;0.10;;;;;;;;;;5108643;28;20110;-64
2021/03/21 20:07:40;;;;;;;0.10;0.10;;;;;;;;;;5109426;28;20092;-64
2021/03/21 20:10:07;;;;;;;0.10;0.10;;;;;;;;;;5108896;28;20081;-64
2021/03/21 20:12:38;;;;;;;0.10;0.10;;;;;;;;;;5108381;28;20019;-64
2021/03/21 20:15:04;;;;;;;0.15;0.15;;;;;;;;;;5108554;28;20039;-64
2021/03/21 20:17:30;;;;;;;0.10;0.10;;;;;;;;;;5109195;28;20393;-64
2021/03/21 20:19:56;;;;;;;0.10;0.10;;;;;;;;;;5092344;28;20495;-65
2021/03/21 20:22:23;;;;;;;0.52;0.52;;;;;;;;;;5094546;28;20023;-65
2021/03/21 20:24:49;;;;;;;0.40;0.40;;;;;;;;;;5108558;28;20026;-64
2021/03/21 20:27:15;;;;;;;0.10;0.10;;;;;;;;;;5108557;28;20477;-64
2021/03/21 20:29:41;;;;;;;0.10;0.10;;;;;;;;;;5108296;28;20096;-64
2021/03/21 20:32:08;;;;;;;0.10;0.10;;;;;;;;;;5100490;28;20021;-65
2021/03/21 20:34:34;;;;;;;0.15;0.15;;;;;;;;;;5108518;28;20481;-64
2021/03/21 20:37:01;;;;;;;1.48;1.38;;;;;;;;;;5108233;28;20028;-63
2021/03/21 20:39:27;;;;;;;0.10;0.10;;;;;;;;;;5108073;28;20024;-64
2021/03/21 20:41:53;;;;;;;1.65;1.55;;;;;;;;;;5108165;28;20023;-64
2021/03/21 20:44:19;;;;;;;2.15;1.75;;;;;;;;;;5107691;28;20053;-64
2021/03/21 20:46:45;;;;;;;0.55;0.55;;;;;;;;;;5109203;28;20054;-64
2021/03/21 20:49:12;;;;;;;0.10;0.10;;;;;;;;;;5108867;28;20110;-64
2021/03/21 20:51:38;;;;;;;0.63;0.63;;;;;;;;;;5108204;28;20020;-63
2021/03/21 20:54:04;;;;;;;0.20;0.20;;;;;;;;;;5108200;28;20484;-64
2021/03/21 20:56:31;;;;;;;0.10;0.10;;;;;;;;;;5107491;28;20064;-64
2021/03/21 20:58:57;;;;;;;0.20;0.20;;;;;;;;;;5107500;28;20056;-65
2021/03/21 21:01:23;;;;;;;0.17;0.17;;;;;;;;;;5110268;28;20027;-65